Time;durP1;ratioP1;P1;durP2;ratioP2;P2;SDS_P1;SDS_P2;PMS_P1;PMS_P2;Temp;Humidity;BMP_temperature;BMP_pressure;BME280_temperature;BME280_humidity;BME280_pressure;Samples;Min_cycle;Max_cycle;Signal;HPM_P1;HPM_P2
2022/04/02 00:00:13;;;;;;;36.80;17.17;;;0.50;99.90;;;;;;5062294;28;20220;-65
2022/04/02 00:03:01;;;;;;;31.87;13.97;;;0.60;99.90;;;;;;5060007;28;20223;-70
2022/04/02 00:05:52;;;;;;;34.70;17.87;;;1.00;99.90;;;;;;5074775;28;20337;-68
2022/04/02 00:08:41;;;;;;;33.60;14.60;;;0.60;99.90;;;;;;5068322;28;20237;-67
2022/04/02 00:11:30;;;;;;;37.53;15.67;;;1.00;99.90;;;;;;5068716;28;20231;-67
2022/04/02 00:14:19;;;;;;;28.57;14.07;;;0.90;99.90;;;;;;5069383;28;20231;-67
2022/04/02 00:17:07;;;;;;;24.47;12.80;;;0.90;99.90;;;;;;5065141;28;20223;-67
2022/04/02 00:19:56;;;;;;;33.40;17.10;;;0.70;99.90;;;;;;5072990;28;20299;-68
2022/04/02 00:25:49;;;;;;;37.70;15.87;;;0.90;99.90;;;;;;5068909;28;20218;-67
2022/04/02 00:28:39;;;;;;;25.73;12.40;;;0.60;99.90;;;;;;5053313;28;20308;-66
2022/04/02 00:31:31;;;;;;;33.67;15.60;;;0.60;99.90;;;;;;5082641;27;20241;-67
2022/04/02 00:34:21;;;;;;;33.53;16.60;;;0.90;99.90;;;;;;5070219;28;20275;-67
2022/04/02 00:37:10;;;;;;;26.37;13.60;;;0.90;99.90;;;;;;5069536;28;20233;-66
2022/04/02 00:40:00;;;;;;;34.47;15.87;;;0.70;99.90;;;;;;5063077;28;20226;-69
2022/04/02 00:42:53;;;;;;;33.47;16.17;;;0.90;99.90;;;;;;5054523;28;20674;-67
2022/04/02 00:45:42;;;;;;;32.33;14.97;;;0.70;99.90;;;;;;5080161;27;20230;-65
2022/04/02 00:48:31;;;;;;;31.30;15.77;;;0.80;99.90;;;;;;5071392;28;20361;-66
2022/04/02 00:51:20;;;;;;;26.80;13.90;;;0.80;99.90;;;;;;5068886;28;20291;-66
2022/04/02 00:54:10;;;;;;;30.30;14.83;;;0.60;99.90;;;;;;5085168;27;20239;-66
2022/04/02 00:57:01;;;;;;;31.50;15.30;;;0.70;99.90;;;;;;5056476;28;20752;-66
2022/04/02 00:59:54;;;;;;;28.57;14.70;;;0.80;99.90;;;;;;5054420;28;20224;-67
2022/04/02 01:02:42;;;;;;;28.70;15.53;;;0.60;99.90;;;;;;5056911;28;20218;-66
2022/04/02 01:05:32;;;;;;;30.20;15.43;;;0.50;99.90;;;;;;5053624;28;20243;-67
2022/04/02 01:08:25;;;;;;;28.93;15.00;;;0.50;99.90;;;;;;5056964;28;20235;-68
2022/04/02 01:11:14;;;;;;;14.93;8.47;;;0.80;99.90;;;;;;5059765;28;20267;-68
2022/04/02 01:14:10;;;;;;;27.67;14.17;;;0.80;99.90;;;;;;5080872;28;20235;-67
2022/04/02 01:17:06;;;;;;;22.53;11.70;;;1.00;99.90;;;;;;5053456;28;20387;-68
2022/04/02 01:19:58;;;;;;;23.30;12.60;;;0.90;99.90;;;;;;5065957;28;20221;-68
2022/04/02 01:22:53;;;;;;;29.17;13.37;;;0.80;99.90;;;;;;5056484;28;20245;-69
2022/04/02 01:25:43;;;;;;;23.73;13.80;;;0.90;99.90;;;;;;5053523;28;20701;-67
2022/04/02 01:28:53;;;;;;;23.87;12.50;;;1.00;99.90;;;;;;5074249;28;20234;-67
2022/04/02 01:31:47;;;;;;;20.87;12.37;;;0.90;99.90;;;;;;5052714;28;20305;-68
2022/04/02 01:34:40;;;;;;;23.80;12.90;;;0.40;99.90;;;;;;5056484;28;20242;-68
2022/04/02 01:37:35;;;;;;;20.97;12.47;;;0.30;99.90;;;;;;5057637;28;20761;-68
2022/04/02 01:40:28;;;;;;;21.77;12.33;;;0.80;99.90;;;;;;5059711;28;20278;-67
2022/04/02 01:43:17;;;;;;;22.37;12.43;;;0.90;99.90;;;;;;5057890;28;20354;-68
2022/04/02 01:46:13;;;;;;;20.00;11.93;;;0.80;99.90;;;;;;5078040;28;20214;-67
2022/04/02 01:49:02;;;;;;;20.23;11.13;;;0.60;99.90;;;;;;5058316;28;20222;-66
2022/04/02 01:51:51;;;;;;;20.20;10.93;;;0.90;99.90;;;;;;5054153;28;20218;-68
2022/04/02 01:54:40;;;;;;;19.63;11.70;;;0.60;99.90;;;;;;5055471;28;20315;-68
2022/04/02 01:57:37;;;;;;;20.03;11.37;;;0.50;99.90;;;;;;5048534;28;20305;-69
2022/04/02 02:00:29;;;;;;;19.83;11.17;;;0.50;99.90;;;;;;5057799;28;20234;-70
2022/04/02 02:03:18;;;;;;;20.10;11.53;;;0.70;99.90;;;;;;5052400;28;20220;-71
2022/04/02 02:06:07;;;;;;;20.40;10.93;;;0.60;99.90;;;;;;5070142;28;20223;-70
2022/04/02 02:09:00;;;;;;;16.37;10.07;;;0.60;99.90;;;;;;5053278;28;20225;-66
2022/04/02 02:12:15;;;;;;;13.90;8.93;;;0.60;99.90;;;;;;5055802;28;20219;-66
2022/04/02 02:15:18;;;;;;;14.80;7.90;;;0.60;99.90;;;;;;5054459;28;20207;-71
2022/04/02 02:18:17;;;;;;;16.73;10.57;;;0.70;99.90;;;;;;5060830;28;20230;-71
2022/04/02 02:21:07;;;;;;;20.47;11.20;;;0.70;99.90;;;;;;5054688;28;20705;-71
2022/04/02 02:23:59;;;;;;;18.27;9.87;;;0.60;99.90;;;;;;5063483;28;20609;-68
2022/04/02 02:26:50;;;;;;;16.47;9.60;;;0.60;99.90;;;;;;5059249;28;21519;-68
2022/04/02 02:29:49;;;;;;;18.07;11.10;;;0.60;99.90;;;;;;5063742;28;20886;-67
2022/04/02 02:32:45;;;;;;;14.23;9.97;;;0.60;99.90;;;;;;5066167;28;20223;-68
2022/04/02 02:35:52;;;;;;;16.23;9.87;;;0.50;99.90;;;;;;5038104;28;20225;-68
2022/04/02 02:38:59;;;;;;;18.47;9.90;;;0.50;99.90;;;;;;5062124;28;20211;-67
2022/04/02 02:41:57;;;;;;;15.87;9.80;;;0.60;99.90;;;;;;5073141;28;20838;-70
2022/04/02 02:44:58;;;;;;;15.07;9.63;;;0.60;99.90;;;;;;5072431;28;20214;-69
2022/04/02 02:47:55;;;;;;;15.73;9.50;;;0.60;99.90;;;;;;5069919;28;20249;-69
2022/04/02 02:50:55;;;;;;;18.03;10.07;;;0.60;99.90;;;;;;5086713;27;20840;-70
2022/04/02 02:53:44;;;;;;;18.97;10.40;;;0.50;99.90;;;;;;5061530;28;20222;-71
2022/04/02 02:56:33;;;;;;;16.10;9.27;;;0.50;99.90;;;;;;5065661;28;20450;-70
2022/04/02 02:59:25;;;;;;;13.87;8.33;;;0.50;99.90;;;;;;5075834;28;20227;-70
2022/04/02 03:02:15;;;;;;;16.27;9.53;;;0.50;99.90;;;;;;5064243;28;20215;-70
2022/04/02 03:05:12;;;;;;;14.53;8.60;;;0.60;99.90;;;;;;5083581;28;20223;-69
2022/04/02 03:08:02;;;;;;;12.57;8.53;;;0.50;99.90;;;;;;5054594;28;20230;-69
2022/04/02 03:11:07;;;;;;;13.47;8.00;;;0.60;99.90;;;;;;5085073;28;20890;-69
2022/04/02 03:13:57;;;;;;;15.50;9.67;;;0.60;99.90;;;;;;5054690;28;20449;-71
2022/04/02 03:16:46;;;;;;;14.20;8.67;;;0.60;99.90;;;;;;5081544;27;20588;-69
2022/04/02 03:19:41;;;;;;;16.60;9.23;;;0.60;99.90;;;;;;5060226;28;20257;-69
2022/04/02 03:22:35;;;;;;;12.93;8.90;;;0.60;99.90;;;;;;5052326;28;20300;-67
2022/04/02 03:25:24;;;;;;;13.03;8.60;;;0.60;99.90;;;;;;5087164;28;20247;-64
2022/04/02 03:28:14;;;;;;;13.40;8.80;;;0.60;99.90;;;;;;5071546;28;20764;-66
2022/04/02 03:31:03;;;;;;;21.30;8.80;;;0.60;99.90;;;;;;5061566;28;20254;-66
2022/04/02 03:33:54;;;;;;;16.53;8.43;;;0.60;99.90;;;;;;5080556;27;20222;-66
2022/04/02 03:36:44;;;;;;;13.40;8.30;;;0.50;99.90;;;;;;5056361;28;20600;-66
2022/04/02 03:39:35;;;;;;;17.67;8.53;;;0.50;99.90;;;;;;5067834;28;20237;-65
2022/04/02 03:42:25;;;;;;;12.40;7.93;;;0.50;99.90;;;;;;5069891;28;20536;-67
2022/04/02 03:45:23;;;;;;;11.97;8.33;;;0.50;99.90;;;;;;5058216;28;20335;-65
2022/04/02 03:48:15;;;;;;;12.27;7.43;;;0.60;99.90;;;;;;5060145;28;20250;-66
2022/04/02 03:51:12;;;;;;;10.13;5.37;;;0.50;99.90;;;;;;5054828;28;20321;-68
2022/04/02 03:54:07;;;;;;;14.50;8.10;;;0.30;99.90;;;;;;5056162;28;20270;-68
2022/04/02 03:57:05;;;;;;;14.60;8.80;;;0.40;99.90;;;;;;5074192;28;20219;-68
2022/04/02 03:59:54;;;;;;;12.93;8.73;;;0.40;99.90;;;;;;5072538;28;20229;-70
2022/04/02 04:02:42;;;;;;;13.73;8.47;;;0.40;99.90;;;;;;5061244;28;20298;-67
2022/04/02 04:05:37;;;;;;;16.63;8.93;;;0.40;99.90;;;;;;5058817;28;21541;-68
2022/04/02 04:08:28;;;;;;;17.30;8.13;;;0.40;99.90;;;;;;5070974;28;20233;-68
2022/04/02 04:11:17;;;;;;;10.30;7.37;;;0.40;99.90;;;;;;5086125;27;20249;-67
2022/04/02 04:14:15;;;;;;;13.67;8.23;;;0.40;99.90;;;;;;5064246;28;20289;-64
2022/04/02 04:17:05;;;;;;;13.33;8.33;;;0.30;99.90;;;;;;5058191;28;20242;-65
2022/04/02 04:19:54;;;;;;;13.60;8.10;;;0.30;99.90;;;;;;5058968;28;20245;-65
2022/04/02 04:22:43;;;;;;;14.23;7.90;;;0.30;99.90;;;;;;5070957;28;20236;-67
2022/04/02 04:25:34;;;;;;;15.23;9.10;;;0.30;99.90;;;;;;5082030;27;20275;-67
2022/04/02 04:28:25;;;;;;;12.83;7.70;;;0.20;99.90;;;;;;5057720;28;20225;-69
2022/04/02 04:31:18;;;;;;;12.90;7.53;;;0.30;99.90;;;;;;5085740;27;20270;-67
2022/04/02 04:34:11;;;;;;;17.13;8.30;;;0.20;99.90;;;;;;5071029;28;20593;-68
2022/04/02 04:37:00;;;;;;;15.90;7.30;;;0.20;99.90;;;;;;5059212;28;20221;-69
2022/04/02 04:39:49;;;;;;;12.67;6.90;;;0.20;99.90;;;;;;5048478;28;20224;-67
2022/04/02 04:42:39;;;;;;;14.10;7.57;;;0.10;99.90;;;;;;5054388;28;20274;-67
2022/04/02 04:45:30;;;;;;;14.47;8.00;;;0.00;99.90;;;;;;5069813;28;20241;-67
2022/04/02 04:48:22;;;;;;;13.87;8.23;;;0.10;99.90;;;;;;5059277;28;20235;-67
2022/04/02 04:51:15;;;;;;;14.37;8.10;;;0.10;99.90;;;;;;5085361;27;20322;-68
2022/04/02 04:54:05;;;;;;;14.97;7.27;;;0.10;99.90;;;;;;5059984;28;20643;-69
2022/04/02 04:56:59;;;;;;;13.73;7.93;;;0.20;99.90;;;;;;5063158;28;20224;-68
2022/04/02 04:59:47;;;;;;;11.87;7.60;;;0.20;99.90;;;;;;5069738;28;21030;-68
2022/04/02 05:02:44;;;;;;;11.33;6.50;;;0.20;99.90;;;;;;5059238;28;20234;-68
2022/04/02 05:05:40;;;;;;;15.53;7.93;;;0.10;99.90;;;;;;5058782;28;20236;-67
2022/04/02 05:08:34;;;;;;;14.80;7.53;;;0.10;99.90;;;;;;5071491;28;20225;-67
2022/04/02 05:11:24;;;;;;;12.00;7.87;;;0.20;99.90;;;;;;5084066;28;20232;-67
2022/04/02 05:14:16;;;;;;;14.07;9.07;;;0.20;99.90;;;;;;5062739;28;20235;-68
2022/04/02 05:17:11;;;;;;;12.53;8.43;;;0.20;99.90;;;;;;5056578;28;20324;-67
2022/04/02 05:20:00;;;;;;;15.73;8.17;;;0.30;99.90;;;;;;5066826;28;20308;-68
2022/04/02 05:22:51;;;;;;;13.10;8.20;;;0.20;99.90;;;;;;5062402;28;20239;-68
2022/04/02 05:25:40;;;;;;;13.93;8.10;;;0.20;99.90;;;;;;5053971;28;20240;-71
2022/04/02 05:28:31;;;;;;;13.57;8.10;;;0.30;99.90;;;;;;5055943;28;20269;-69
2022/04/02 05:31:21;;;;;;;15.80;7.17;;;0.10;99.90;;;;;;5062664;28;20231;-68
2022/04/02 05:34:10;;;;;;;15.13;7.67;;;0.20;99.90;;;;;;5074265;28;20753;-68
2022/04/02 05:37:02;;;;;;;15.33;8.40;;;0.20;99.90;;;;;;5074572;28;20231;-68
2022/04/02 05:39:52;;;;;;;14.47;7.83;;;0.10;99.90;;;;;;5059501;28;20591;-67
2022/04/02 05:42:41;;;;;;;13.57;7.53;;;0.20;99.90;;;;;;5065677;28;20780;-68
2022/04/02 05:45:30;;;;;;;12.77;7.00;;;0.20;99.90;;;;;;5060849;28;20218;-67
2022/04/02 05:48:20;;;;;;;13.37;7.20;;;0.10;99.90;;;;;;5055296;28;20304;-68
2022/04/02 05:51:13;;;;;;;13.90;8.07;;;0.10;99.90;;;;;;5060315;28;20251;-66
2022/04/02 05:54:05;;;;;;;14.27;8.43;;;0.10;99.90;;;;;;5068045;28;20214;-67
2022/04/02 05:56:55;;;;;;;13.17;6.80;;;0.00;99.90;;;;;;5056152;28;20883;-68
2022/04/02 05:59:44;;;;;;;10.47;7.33;;;0.00;99.90;;;;;;5059273;28;20320;-67
2022/04/02 06:02:33;;;;;;;10.87;6.70;;;0.10;99.90;;;;;;5071491;28;20221;-68
2022/04/02 06:05:22;;;;;;;10.80;6.53;;;0.10;99.90;;;;;;5061477;28;20830;-68
2022/04/02 06:08:11;;;;;;;10.40;6.80;;;0.20;99.90;;;;;;5063629;28;20797;-68
2022/04/02 06:11:00;;;;;;;12.33;6.87;;;0.20;99.90;;;;;;5074510;28;20253;-68
2022/04/02 06:13:55;;;;;;;16.37;5.97;;;0.10;99.90;;;;;;5054151;28;20225;-68
2022/04/02 06:16:44;;;;;;;11.57;6.10;;;0.10;99.90;;;;;;5069564;28;20251;-68
2022/04/02 06:19:33;;;;;;;11.03;6.13;;;0.20;99.90;;;;;;5056954;28;21094;-68
2022/04/02 06:22:22;;;;;;;9.17;4.90;;;0.10;99.90;;;;;;5052836;28;20227;-67
2022/04/02 06:25:11;;;;;;;10.33;5.80;;;0.10;99.90;;;;;;5056607;28;20228;-67
2022/04/02 06:28:00;;;;;;;10.00;6.03;;;0.10;99.90;;;;;;5056953;28;20217;-66
2022/04/02 06:30:50;;;;;;;9.80;6.10;;;0.20;99.90;;;;;;5061123;28;20239;-66
2022/04/02 06:33:42;;;;;;;9.90;6.00;;;0.00;99.90;;;;;;5057056;28;21023;-67
2022/04/02 06:36:32;;;;;;;10.27;6.17;;;0.20;99.90;;;;;;5059735;28;20221;-65
2022/04/02 06:39:21;;;;;;;10.70;6.03;;;0.10;99.90;;;;;;5056232;28;20306;-65
2022/04/02 06:42:10;;;;;;;9.93;6.10;;;0.20;99.90;;;;;;5068860;28;20222;-67
2022/04/02 06:45:05;;;;;;;12.87;5.30;;;0.20;99.90;;;;;;5056543;28;20220;-67
2022/04/02 06:47:55;;;;;;;10.50;6.00;;;0.30;99.90;;;;;;5070179;28;20227;-69
2022/04/02 06:50:44;;;;;;;11.90;5.73;;;0.20;99.90;;;;;;5071419;28;20674;-68
2022/04/02 06:53:37;;;;;;;8.33;4.93;;;0.20;99.90;;;;;;5071437;28;20593;-66
2022/04/02 06:56:29;;;;;;;11.40;5.83;;;0.20;99.90;;;;;;5070028;28;21072;-67
2022/04/02 06:59:18;;;;;;;10.30;6.07;;;0.20;99.90;;;;;;5060357;28;20216;-67
2022/04/02 07:02:07;;;;;;;10.27;6.00;;;0.30;99.90;;;;;;5053686;28;20245;-68
2022/04/02 07:05:00;;;;;;;12.77;6.20;;;0.30;99.90;;;;;;5057737;28;20227;-67
2022/04/02 07:07:50;;;;;;;12.90;6.37;;;0.20;99.90;;;;;;5067184;28;20219;-68
2022/04/02 07:10:39;;;;;;;11.00;6.20;;;0.40;99.90;;;;;;5061344;28;20247;-67
2022/04/02 07:13:29;;;;;;;11.77;6.57;;;0.50;99.90;;;;;;5056620;28;20363;-71
2022/04/02 07:16:20;;;;;;;12.63;6.50;;;0.40;99.90;;;;;;5072435;28;20239;-67
2022/04/02 07:19:10;;;;;;;11.00;6.20;;;0.50;99.90;;;;;;5073087;28;20723;-65
2022/04/02 07:22:01;;;;;;;12.40;6.50;;;0.40;99.90;;;;;;5060297;28;20295;-66
2022/04/02 07:24:52;;;;;;;12.50;6.63;;;0.40;99.90;;;;;;5070404;28;20227;-65
2022/04/02 07:27:43;;;;;;;14.10;7.57;;;0.50;99.90;;;;;;5075053;28;20227;-65
2022/04/02 07:30:34;;;;;;;12.73;7.43;;;0.40;99.90;;;;;;5061693;28;20608;-67
2022/04/02 07:33:23;;;;;;;13.07;7.70;;;0.60;99.90;;;;;;5060104;28;20418;-64
2022/04/02 07:36:20;;;;;;;14.33;8.73;;;0.50;99.90;;;;;;5060116;28;20360;-65
2022/04/02 07:39:15;;;;;;;12.93;8.57;;;0.60;99.90;;;;;;5068816;28;20384;-65
2022/04/02 07:42:11;;;;;;;14.50;9.10;;;0.60;99.90;;;;;;5057593;28;20273;-66
2022/04/02 07:45:05;;;;;;;13.03;7.97;;;0.70;99.90;;;;;;5059371;28;20216;-65
2022/04/02 07:47:57;;;;;;;15.53;8.27;;;0.60;99.90;;;;;;5077291;28;20268;-65
2022/04/02 07:50:47;;;;;;;10.77;6.90;;;0.70;99.90;;;;;;5072788;28;20245;-65
2022/04/02 07:53:44;;;;;;;12.30;7.83;;;0.70;99.90;;;;;;5059614;28;20284;-64
2022/04/02 07:56:38;;;;;;;13.80;7.93;;;0.70;99.90;;;;;;5077626;28;20256;-64
2022/04/02 07:59:34;;;;;;;14.57;7.70;;;0.70;99.90;;;;;;5067789;28;20238;-67
2022/04/02 08:02:37;;;;;;;14.47;7.97;;;0.80;99.90;;;;;;5053670;28;20334;-65
2022/04/02 08:05:26;;;;;;;13.70;8.47;;;0.80;99.90;;;;;;5050860;28;20266;-64
2022/04/02 08:08:26;;;;;;;15.10;8.00;;;0.80;99.90;;;;;;5063539;28;20227;-69
2022/04/02 08:11:17;;;;;;;16.70;8.40;;;0.80;99.90;;;;;;5073028;28;20221;-66
2022/04/02 08:14:09;;;;;;;15.30;7.90;;;0.90;99.90;;;;;;5058862;28;20223;-67
2022/04/02 08:16:58;;;;;;;14.73;8.50;;;0.90;99.90;;;;;;5083763;28;20693;-66
2022/04/02 08:19:51;;;;;;;14.27;7.80;;;0.90;99.90;;;;;;5058369;28;20227;-67
2022/04/02 08:22:42;;;;;;;12.80;9.00;;;0.80;99.90;;;;;;5058234;28;20231;-67
2022/04/02 08:25:31;;;;;;;13.87;7.90;;;0.90;99.90;;;;;;5073625;28;20233;-67
2022/04/02 08:28:26;;;;;;;16.50;10.27;;;0.90;99.90;;;;;;5062574;28;20598;-66
2022/04/02 08:31:27;;;;;;;17.40;9.50;;;1.00;99.90;;;;;;5069716;28;20219;-65
2022/04/02 08:34:26;;;;;;;23.97;11.73;;;0.90;99.90;;;;;;5075934;28;20704;-70
2022/04/02 08:37:20;;;;;;;22.17;11.37;;;0.90;99.90;;;;;;5075272;28;20246;-66
2022/04/02 08:40:35;;;;;;;13.40;7.73;;;1.10;99.90;;;;;;5089532;27;20216;-66
2022/04/02 08:44:00;;;;;;;15.27;9.13;;;1.00;99.90;;;;;;5075314;28;20254;-65
2022/04/02 08:47:16;;;;;;;13.33;8.43;;;1.10;99.90;;;;;;5078158;28;20250;-66
2022/04/02 08:50:10;;;;;;;16.47;8.20;;;1.10;99.90;;;;;;5056660;28;20231;-65
2022/04/02 08:53:12;;;;;;;14.93;8.73;;;1.10;99.90;;;;;;5056850;28;20230;-68
2022/04/02 08:56:06;;;;;;;16.17;8.60;;;1.10;99.90;;;;;;5056997;28;20222;-66
2022/04/02 08:59:04;;;;;;;16.63;10.10;;;1.10;99.90;;;;;;5056179;28;20288;-66
2022/04/02 09:02:06;;;;;;;17.50;11.83;;;1.20;99.90;;;;;;5060783;28;20307;-66
2022/04/02 09:05:12;;;;;;;25.40;16.27;;;1.30;99.90;;;;;;5085984;28;20223;-67
2022/04/02 09:08:33;;;;;;;30.47;18.80;;;1.30;99.90;;;;;;5067025;28;20246;-66
2022/04/02 09:11:24;;;;;;;22.93;15.13;;;1.40;99.90;;;;;;5056523;28;20228;-67
2022/04/02 09:15:02;;;;;;;25.57;18.13;;;1.30;99.90;;;;;;5058170;28;20223;-67
2022/04/02 09:18:03;;;;;;;19.50;13.13;;;1.40;99.90;;;;;;4980814;28;20229;-67
2022/04/02 09:20:55;;;;;;;15.23;9.60;;;1.40;99.90;;;;;;5073709;28;20223;-67
2022/04/02 09:23:48;;;;;;;14.10;10.10;;;1.40;99.90;;;;;;5073013;28;20227;-66
2022/04/02 09:27:16;;;;;;;13.80;9.33;;;1.40;99.90;;;;;;5083385;28;20299;-66
2022/04/02 09:30:12;;;;;;;16.90;9.40;;;1.50;99.90;;;;;;5068125;28;20472;-67
2022/04/02 09:33:30;;;;;;;16.00;8.43;;;1.50;99.90;;;;;;5082590;27;20215;-66
2022/04/02 09:36:31;;;;;;;14.57;9.37;;;1.40;99.90;;;;;;5068873;28;20377;-67
2022/04/02 09:39:29;;;;;;;14.33;9.67;;;1.50;99.90;;;;;;5070153;28;20276;-66
2022/04/02 09:42:38;;;;;;;17.27;9.90;;;1.60;99.90;;;;;;5057584;28;20236;-63
2022/04/02 09:45:41;;;;;;;13.87;9.47;;;1.60;99.90;;;;;;5069263;28;20591;-63
2022/04/02 09:48:39;;;;;;;17.73;8.33;;;1.60;99.90;;;;;;5071973;28;20230;-64
2022/04/02 09:51:37;;;;;;;12.67;7.63;;;1.70;99.90;;;;;;5067577;28;20246;-64
2022/04/02 09:54:38;;;;;;;13.20;8.30;;;1.70;99.90;;;;;;5070644;28;20295;-64
2022/04/02 09:57:37;;;;;;;12.97;7.83;;;1.70;99.90;;;;;;5070205;28;20570;-64
2022/04/02 10:00:34;;;;;;;12.87;8.13;;;1.70;99.90;;;;;;5069678;28;20703;-64
2022/04/02 10:03:39;;;;;;;13.83;8.07;;;1.70;99.90;;;;;;5067596;28;20224;-64
2022/04/02 10:06:38;;;;;;;12.27;7.77;;;1.70;99.90;;;;;;5060794;28;20229;-64
2022/04/02 10:09:34;;;;;;;11.53;7.27;;;1.80;99.90;;;;;;5059888;28;20721;-64
2022/04/02 10:12:27;;;;;;;12.27;8.00;;;1.70;99.90;;;;;;5073249;28;20288;-64
2022/04/02 10:15:20;;;;;;;15.03;8.30;;;1.90;99.90;;;;;;5069405;28;20216;-64
2022/04/02 10:18:12;;;;;;;16.77;8.43;;;1.90;99.90;;;;;;5054915;28;20224;-64
2022/04/02 10:21:05;;;;;;;13.27;8.37;;;1.90;99.90;;;;;;5068589;28;20215;-65
2022/04/02 10:23:55;;;;;;;13.83;8.17;;;2.00;99.90;;;;;;5071810;28;20224;-64
2022/04/02 10:26:50;;;;;;;13.40;8.17;;;2.10;99.90;;;;;;5062311;28;20303;-64
2022/04/02 10:29:56;;;;;;;13.53;8.07;;;1.90;99.90;;;;;;5047356;28;20235;-64
2022/04/02 10:32:54;;;;;;;17.40;8.53;;;2.10;99.90;;;;;;5068014;28;20781;-66
2022/04/02 10:35:45;;;;;;;19.27;8.53;;;2.00;99.90;;;;;;5053597;28;20216;-64
2022/04/02 10:38:37;;;;;;;17.67;9.80;;;2.00;99.90;;;;;;5085796;28;20229;-64
2022/04/02 10:41:30;;;;;;;16.53;9.10;;;2.00;99.90;;;;;;5060314;28;20216;-63
2022/04/02 10:44:31;;;;;;;12.57;8.57;;;2.10;99.90;;;;;;5072501;28;20230;-64
2022/04/02 10:47:28;;;;;;;18.33;8.40;;;2.30;99.90;;;;;;5068744;28;20215;-64
2022/04/02 10:50:19;;;;;;;12.63;7.93;;;2.30;99.90;;;;;;5057725;28;20730;-66
2022/04/02 10:53:17;;;;;;;15.50;8.37;;;2.30;99.90;;;;;;5067899;28;20697;-62
2022/04/02 10:56:17;;;;;;;15.50;9.27;;;2.10;99.90;;;;;;5056493;28;20335;-62
2022/04/02 10:59:10;;;;;;;14.93;9.10;;;2.40;99.90;;;;;;5050080;28;20225;-63
2022/04/02 11:02:01;;;;;;;11.70;7.77;;;2.50;99.90;;;;;;5046238;28;20274;-63
2022/04/02 11:04:59;;;;;;;15.03;8.47;;;2.50;99.90;;;;;;5066102;28;20220;-65
2022/04/02 11:07:49;;;;;;;16.03;9.30;;;2.90;99.90;;;;;;5069408;28;20240;-63
2022/04/02 11:10:39;;;;;;;13.87;8.57;;;2.80;99.90;;;;;;5062439;28;20240;-63
2022/04/02 11:13:32;;;;;;;15.93;8.87;;;2.80;99.90;;;;;;5077656;27;20241;-62
2022/04/02 11:16:23;;;;;;;12.97;8.73;;;3.00;99.90;;;;;;5068692;28;20238;-63
2022/04/02 11:22:27;;;;;;;15.83;9.23;;;2.90;99.90;;;;;;5064247;28;20730;-63
2022/04/02 11:25:22;;;;;;;14.30;9.20;;;3.00;99.90;;;;;;5054127;28;24621;-63
2022/04/02 11:28:13;;;;;;;12.27;8.67;;;3.20;99.90;;;;;;5058703;28;20305;-63
2022/04/02 11:31:05;;;;;;;13.03;8.63;;;3.10;99.90;;;;;;5062229;28;20226;-63
2022/04/02 11:33:54;;;;;;;12.20;8.40;;;3.20;99.90;;;;;;5075194;28;20807;-63
2022/04/02 11:36:44;;;;;;;14.10;8.30;;;3.20;99.90;;;;;;5068258;28;20609;-63
2022/04/02 11:39:39;;;;;;;13.47;8.00;;;3.40;99.90;;;;;;5073207;28;20549;-63
2022/04/02 11:42:34;;;;;;;12.90;8.27;;;3.50;99.90;;;;;;5084588;27;20220;-64
2022/04/02 11:45:22;;;;;;;13.40;7.43;;;3.50;99.90;;;;;;5060804;28;20307;-64
2022/04/02 11:48:14;;;;;;;14.13;8.47;;;3.50;99.90;;;;;;5075564;28;20287;-64
2022/04/02 11:51:14;;;;;;;12.83;7.87;;;3.60;99.90;;;;;;5071160;28;20217;-64
2022/04/02 11:54:07;;;;;;;15.00;7.50;;;3.80;99.90;;;;;;5053274;28;20808;-65
2022/04/02 11:57:08;;;;;;;15.17;8.50;;;3.90;99.90;;;;;;5071405;28;20318;-64
2022/04/02 11:59:58;;;;;;;13.03;8.00;;;3.90;99.90;;;;;;5065654;28;20243;-64
2022/04/02 12:02:47;;;;;;;11.30;7.73;;;4.00;99.90;;;;;;5060442;28;20566;-62
2022/04/02 12:05:43;;;;;;;12.70;8.37;;;3.90;99.90;;;;;;5058118;28;20323;-62
2022/04/02 12:08:33;;;;;;;13.70;8.47;;;3.90;99.90;;;;;;5074508;28;20252;-63
2022/04/02 12:11:25;;;;;;;13.80;8.83;;;3.90;99.90;;;;;;5072267;28;20340;-62
2022/04/02 12:14:31;;;;;;;12.07;7.67;;;4.00;99.90;;;;;;5070544;28;20228;-62
2022/04/02 12:17:20;;;;;;;12.57;8.53;;;4.00;99.90;;;;;;5072916;28;20225;-61
2022/04/02 12:20:10;;;;;;;16.57;8.43;;;4.00;99.90;;;;;;5072451;28;20233;-61
2022/04/02 12:23:11;;;;;;;14.37;7.93;;;3.90;99.90;;;;;;5045970;28;20222;-62
2022/04/02 12:26:02;;;;;;;14.80;7.87;;;3.90;99.90;;;;;;5070105;28;20211;-62
2022/04/02 12:28:57;;;;;;;16.53;7.87;;;4.00;99.90;;;;;;5042708;28;20240;-62
2022/04/02 12:31:51;;;;;;;12.83;8.20;;;3.90;99.90;;;;;;5040178;28;20236;-61
2022/04/02 12:34:42;;;;;;;13.73;8.20;;;4.00;99.90;;;;;;5059495;28;20708;-62
2022/04/02 12:37:32;;;;;;;12.40;8.10;;;4.00;99.90;;;;;;5071921;28;20233;-60
2022/04/02 12:40:24;;;;;;;16.03;8.07;;;4.00;99.90;;;;;;5072699;28;20236;-63
2022/04/02 12:43:14;;;;;;;13.83;8.60;;;4.00;99.90;;;;;;5072261;28;20879;-61
2022/04/02 12:46:08;;;;;;;16.57;8.67;;;4.10;99.90;;;;;;5068351;28;20261;-63
2022/04/02 12:48:58;;;;;;;13.43;9.00;;;4.10;99.90;;;;;;5055738;28;20386;-61
2022/04/02 12:52:03;;;;;;;12.40;7.67;;;4.30;99.90;;;;;;5065425;28;20249;-61
2022/04/02 12:54:54;;;;;;;12.97;8.27;;;4.30;99.90;;;;;;5062147;28;20236;-64
2022/04/02 12:57:55;;;;;;;12.50;7.60;;;4.20;99.90;;;;;;5065329;28;20269;-62
2022/04/02 13:00:50;;;;;;;14.30;9.27;;;4.30;99.90;;;;;;5046358;28;20229;-62
2022/04/02 13:03:48;;;;;;;15.40;9.30;;;4.30;99.90;;;;;;5080288;28;20234;-62
2022/04/02 13:06:47;;;;;;;13.30;7.90;;;4.40;99.90;;;;;;5070307;28;20237;-62
2022/04/02 13:09:36;;;;;;;13.40;8.57;;;4.20;99.90;;;;;;5045091;28;20228;-62
2022/04/02 13:12:26;;;;;;;13.97;9.20;;;4.30;99.90;;;;;;5071587;28;20250;-62
2022/04/02 13:15:17;;;;;;;12.27;7.73;;;4.40;99.90;;;;;;5072665;28;21005;-62
2022/04/02 13:21:22;;;;;;;14.73;8.27;;;4.30;99.90;;;;;;5059148;28;20288;-62
2022/04/02 13:24:31;;;;;;;14.33;7.67;;;4.50;99.90;;;;;;5073161;28;20233;-62
2022/04/02 13:27:48;;;;;;;12.97;8.10;;;4.50;99.90;;;;;;5075129;28;20230;-63
2022/04/02 13:30:40;;;;;;;16.93;8.17;;;4.60;99.90;;;;;;5070164;28;20586;-62
2022/04/02 13:33:58;;;;;;;13.70;8.67;;;4.70;99.90;;;;;;5073649;28;20249;-62
2022/04/02 13:37:19;;;;;;;11.10;7.70;;;4.80;99.90;;;;;;5067013;28;20813;-62
2022/04/02 13:40:20;;;;;;;16.47;8.07;;;4.70;99.90;;;;;;5071947;28;20222;-62
2022/04/02 13:43:10;;;;;;;13.30;7.53;;;4.80;99.90;;;;;;5077763;28;20318;-62
2022/04/02 13:46:04;;;;;;;14.27;8.37;;;5.00;99.90;;;;;;5054424;28;20706;-62
2022/04/02 13:49:00;;;;;;;12.63;8.20;;;4.90;99.90;;;;;;5070861;28;20230;-62
2022/04/02 13:51:56;;;;;;;14.33;8.30;;;4.90;99.90;;;;;;5062308;28;20680;-60
2022/04/02 13:54:59;;;;;;;17.77;9.60;;;5.00;99.90;;;;;;5070512;28;20236;-63
2022/04/02 13:57:51;;;;;;;18.17;10.50;;;5.10;99.90;;;;;;5068959;28;20419;-61
2022/04/02 14:00:42;;;;;;;13.80;9.13;;;5.20;99.90;;;;;;5065958;28;20234;-61
2022/04/02 14:03:33;;;;;;;15.53;9.97;;;5.10;99.90;;;;;;5052220;28;20239;-62
2022/04/02 14:06:24;;;;;;;15.30;10.00;;;5.20;99.90;;;;;;5050806;28;20294;-61
2022/04/02 14:09:13;;;;;;;18.10;10.43;;;5.10;99.90;;;;;;5058593;28;20226;-62
2022/04/02 14:12:05;;;;;;;18.50;9.50;;;5.20;99.90;;;;;;5043213;28;20219;-61
2022/04/02 14:14:59;;;;;;;18.40;9.23;;;5.20;99.90;;;;;;5060644;28;20230;-64
2022/04/02 14:17:53;;;;;;;15.53;8.90;;;5.10;99.90;;;;;;5070103;28;20228;-65
2022/04/02 14:20:44;;;;;;;18.70;9.20;;;5.00;99.90;;;;;;5071983;28;20227;-64
2022/04/02 14:23:37;;;;;;;18.03;8.23;;;5.00;99.90;;;;;;5071144;28;20299;-65
2022/04/02 14:26:50;;;;;;;14.13;8.37;;;5.00;99.90;;;;;;5054175;28;20235;-65
2022/04/02 14:29:55;;;;;;;16.77;8.10;;;5.10;99.90;;;;;;5069166;28;20555;-65
2022/04/02 14:33:18;;;;;;;16.47;8.43;;;5.30;99.90;;;;;;5055341;28;20224;-64
2022/04/02 14:36:51;;;;;;;16.57;7.93;;;5.40;99.90;;;;;;5070909;28;20233;-64
2022/04/02 14:40:12;;;;;;;11.90;6.80;;;5.30;99.90;;;;;;5061269;28;20703;-64
2022/04/02 14:43:33;;;;;;;10.57;6.10;;;5.30;99.90;;;;;;5054421;28;20218;-64
2022/04/02 14:47:17;;;;;;;10.60;5.80;;;5.20;99.90;;;;;;5071146;28;20226;-64
2022/04/02 14:50:35;;;;;;;10.50;5.50;;;5.20;99.90;;;;;;5073474;28;20844;-65
2022/04/02 14:54:08;;;;;;;12.40;6.23;;;5.20;99.90;;;;;;5043745;28;20247;-65
2022/04/02 14:57:37;;;;;;;12.00;6.10;;;5.20;99.90;;;;;;5066208;28;20222;-65
2022/04/02 15:00:50;;;;;;;10.07;5.67;;;5.30;99.90;;;;;;5050120;28;20351;-66
2022/04/02 15:04:15;;;;;;;8.70;5.60;;;5.30;99.90;;;;;;5054645;28;20232;-64
2022/04/02 15:07:31;;;;;;;10.60;5.17;;;5.30;99.90;;;;;;5074344;28;20231;-65
2022/04/02 15:10:33;;;;;;;19.27;5.67;;;5.20;99.90;;;;;;5084799;28;20220;-65
2022/04/02 15:13:23;;;;;;;12.73;5.60;;;5.40;99.90;;;;;;5074944;28;20228;-65
2022/04/02 15:16:27;;;;;;;7.70;5.30;;;5.40;99.90;;;;;;5060277;28;20223;-66
2022/04/02 15:19:22;;;;;;;9.97;5.60;;;5.40;99.90;;;;;;5076289;28;20226;-65